Time;durP1;ratioP1;P1;durP2;ratioP2;P2;SDS_P1;SDS_P2;PMS_P1;PMS_P2;Temp;Humidity;BMP_temperature;BMP_pressure;BME280_temperature;BME280_humidity;BME280_pressure;Samples;Min_cycle;Max_cycle;Signal;HPM_P1;HPM_P2
2022/03/06 00:01:38;;;;;;;27.30;10.20;;;-2.20;99.90;;;;;;5026024;28;20091;-53
2022/03/06 00:04:05;;;;;;;;;;;-2.30;99.90;;;;;;5032659;28;20075;-54
2022/03/06 00:06:33;;;;;;;31.35;10.75;;;-2.20;99.90;;;;;;5028663;28;19976;-52
2022/03/06 00:09:00;;;;;;;25.27;10.00;;;-2.30;99.90;;;;;;5031778;28;20493;-54
2022/03/06 00:11:27;;;;;;;28.60;10.55;;;-2.40;99.90;;;;;;5020753;28;20044;-55
2022/03/06 00:13:54;;;;;;;25.75;9.70;;;-2.40;99.90;;;;;;5031844;28;20040;-53
2022/03/06 00:16:21;;;;;;;21.95;9.43;;;-2.30;99.90;;;;;;5032233;28;20030;-55
2022/03/06 00:18:48;;;;;;;25.30;10.15;;;-2.30;99.90;;;;;;5027849;28;20366;-56
2022/03/06 00:21:15;;;;;;;20.40;7.68;;;-2.30;99.90;;;;;;5025669;28;20056;-52
2022/03/06 00:23:42;;;;;;;27.73;10.95;;;-2.30;99.90;;;;;;5030052;28;20173;-54
2022/03/06 00:26:08;;;;;;;27.35;10.40;;;-2.30;99.90;;;;;;5030976;28;20063;-52
2022/03/06 00:28:36;;;;;;;37.15;10.40;;;-2.20;99.90;;;;;;5034397;28;20140;-53
2022/03/06 00:31:03;;;;;;;25.58;9.48;;;-2.20;99.90;;;;;;5047913;28;20378;-51
2022/03/06 00:33:30;;;;;;;24.58;10.02;;;-2.20;99.90;;;;;;5052048;28;20040;-53
2022/03/06 00:35:57;;;;;;;24.23;9.38;;;-2.20;99.90;;;;;;5048489;28;20033;-55
2022/03/06 00:38:23;;;;;;;26.85;9.18;;;-2.20;99.90;;;;;;5043041;28;20515;-54
2022/03/06 00:40:51;;;;;;;29.13;9.40;;;-2.20;99.90;;;;;;5019693;28;20125;-53
2022/03/06 00:43:18;;;;;;;23.63;9.05;;;-2.20;99.90;;;;;;5016614;28;20053;-54
2022/03/06 00:45:46;;;;;;;25.77;9.32;;;-2.30;99.90;;;;;;5025696;28;20468;-53
2022/03/06 00:48:13;;;;;;;27.25;9.85;;;-2.40;99.90;;;;;;5029755;28;20501;-53
2022/03/06 00:50:40;;;;;;;28.80;9.70;;;-2.50;99.90;;;;;;5028681;28;20037;-54
2022/03/06 00:53:07;;;;;;;24.20;9.50;;;-2.40;99.90;;;;;;5023046;28;20045;-54
2022/03/06 00:55:36;;;;;;;24.17;9.35;;;-2.50;99.90;;;;;;5018738;28;20041;-53
2022/03/06 00:58:05;;;;;;;;;;;-2.50;99.90;;;;;;5013318;28;20042;-56
2022/03/06 01:00:37;;;;;;;26.77;10.20;;;-2.50;99.90;;;;;;5017078;28;19922;-52
2022/03/06 01:03:06;;;;;;;26.88;9.82;;;-2.50;99.90;;;;;;5028904;28;20124;-54
2022/03/06 01:05:34;;;;;;;28.25;9.98;;;-2.60;99.90;;;;;;5028908;28;20069;-55
2022/03/06 01:08:02;;;;;;;24.05;9.90;;;-2.60;99.90;;;;;;5030870;28;20084;-53
2022/03/06 01:10:28;;;;;;;25.67;9.55;;;-2.60;99.90;;;;;;5027462;28;20041;-52
2022/03/06 01:12:56;;;;;;;25.63;10.18;;;-2.60;99.90;;;;;;5031180;28;20045;-53
2022/03/06 01:15:24;;;;;;;23.23;9.60;;;-2.60;99.90;;;;;;5029005;28;20038;-52
2022/03/06 01:17:51;;;;;;;;;;;-2.60;99.90;;;;;;5031137;28;20037;-52
2022/03/06 01:20:19;;;;;;;22.60;9.43;;;-2.70;99.90;;;;;;5020506;28;19964;-51
2022/03/06 01:22:47;;;;;;;29.10;10.45;;;-2.70;99.90;;;;;;5030846;28;20045;-54
2022/03/06 01:25:14;;;;;;;28.10;10.45;;;-2.80;99.90;;;;;;5028760;28;20576;-55
2022/03/06 01:27:41;;;;;;;25.95;10.05;;;-2.80;99.90;;;;;;5027972;28;20068;-53
2022/03/06 01:30:10;;;;;;;27.58;10.90;;;-2.80;99.90;;;;;;5028892;28;20042;-53
2022/03/06 01:32:37;;;;;;;26.42;9.82;;;-2.80;99.90;;;;;;5031232;28;20042;-52
2022/03/06 01:35:05;;;;;;;;;;;-2.80;99.90;;;;;;5034723;28;20426;-51
2022/03/06 01:37:32;;;;;;;24.55;9.07;;;-2.80;99.90;;;;;;5034924;28;20336;-52
2022/03/06 01:39:59;;;;;;;22.17;8.95;;;-2.80;99.90;;;;;;5032873;28;20038;-53
2022/03/06 01:42:26;;;;;;;25.02;9.52;;;-2.70;99.90;;;;;;5031416;28;20047;-54
2022/03/06 01:44:53;;;;;;;24.38;9.57;;;-2.70;99.90;;;;;;5029993;28;20099;-54
2022/03/06 01:47:43;;;;;;;23.00;9.00;;;-2.70;99.90;;;;;;5030731;28;20037;-55
2022/03/06 01:50:16;;;;;;;23.92;9.07;;;-2.70;99.90;;;;;;5034811;28;20045;-55
2022/03/06 01:52:45;;;;;;;27.10;10.07;;;-2.90;99.90;;;;;;5035154;28;20495;-55
2022/03/06 01:55:13;;;;;;;23.27;10.10;;;-3.00;99.90;;;;;;5043017;28;20521;-52
2022/03/06 01:57:42;;;;;;;29.92;9.77;;;-3.00;99.90;;;;;;5049939;28;20129;-55
2022/03/06 02:00:15;;;;;;;26.00;10.10;;;-3.00;99.90;;;;;;5033402;28;20033;-53
2022/03/06 02:02:42;;;;;;;29.55;10.52;;;-3.00;99.90;;;;;;5031409;28;20056;-51
2022/03/06 02:05:09;;;;;;;;;;;-2.90;99.90;;;;;;5034431;28;20045;-55
2022/03/06 02:07:36;;;;;;;20.38;8.85;;;-2.90;99.90;;;;;;5030700;28;19921;-51
2022/03/06 02:10:05;;;;;;;27.00;9.70;;;-3.00;99.90;;;;;;5029555;28;20038;-51
2022/03/06 02:12:32;;;;;;;29.65;10.52;;;-2.90;99.90;;;;;;5042009;28;20774;-54
2022/03/06 02:15:01;;;;;;;24.42;10.60;;;-2.90;99.90;;;;;;5028207;28;20509;-55
2022/03/06 02:17:29;;;;;;;23.38;9.88;;;-2.90;99.90;;;;;;5031319;28;20076;-54
2022/03/06 02:20:07;;;;;;;27.42;9.68;;;-3.00;99.90;;;;;;5031702;28;20041;-55
2022/03/06 02:22:42;;;;;;;26.70;10.68;;;-3.10;99.90;;;;;;5021490;28;20061;-55
2022/03/06 02:25:17;;;;;;;24.38;9.98;;;-3.10;99.90;;;;;;5030144;28;20057;-51
2022/03/06 02:27:45;;;;;;;23.38;9.48;;;-3.10;99.90;;;;;;5039291;28;20077;-53
2022/03/06 02:30:15;;;;;;;29.15;10.20;;;-3.00;99.90;;;;;;5062186;22;20070;-61
2022/03/06 02:32:45;;;;;;;25.05;9.65;;;-3.00;99.90;;;;;;5051451;28;20091;-61
2022/03/06 02:35:13;;;;;;;26.58;9.73;;;-3.10;99.90;;;;;;5052899;28;20394;-60
2022/03/06 02:37:40;;;;;;;27.52;9.43;;;-3.20;99.90;;;;;;5052653;28;20124;-61
2022/03/06 02:40:09;;;;;;;24.27;9.60;;;-3.30;99.90;;;;;;5033472;28;20040;-60
2022/03/06 02:42:39;;;;;;;23.65;9.43;;;-3.30;99.90;;;;;;5040881;28;20045;-60
2022/03/06 02:45:16;;;;;;;29.00;10.13;;;-3.30;99.90;;;;;;5032966;28;20052;-60
2022/03/06 02:47:44;;;;;;;29.17;10.43;;;-3.30;99.90;;;;;;5031382;28;20042;-60
2022/03/06 02:50:15;;;;;;;26.45;9.68;;;-3.30;99.90;;;;;;5042430;28;20375;-61
2022/03/06 02:52:42;;;;;;;27.65;9.80;;;-3.30;99.90;;;;;;5052763;28;20049;-60
2022/03/06 02:55:11;;;;;;;27.42;9.63;;;-3.30;99.90;;;;;;5052492;28;20116;-60
2022/03/06 02:57:38;;;;;;;25.00;9.77;;;-3.30;99.90;;;;;;5048961;28;20037;-60
2022/03/06 03:00:10;;;;;;;29.98;9.75;;;-3.30;99.90;;;;;;5044464;28;20045;-62
2022/03/06 03:02:38;;;;;;;26.95;9.88;;;-3.30;99.90;;;;;;5052594;28;20064;-61
2022/03/06 03:05:06;;;;;;;27.45;10.23;;;-3.40;99.90;;;;;;5049841;28;20048;-63
2022/03/06 03:07:33;;;;;;;29.40;10.07;;;-3.40;99.90;;;;;;5043512;28;20052;-61
2022/03/06 03:10:00;;;;;;;29.02;10.02;;;-3.50;99.90;;;;;;5052319;28;20049;-60
2022/03/06 03:12:27;;;;;;;33.15;10.32;;;-3.50;99.90;;;;;;5052515;28;20451;-61
2022/03/06 03:14:54;;;;;;;;;;;-3.50;99.90;;;;;;5047133;28;20060;-60
2022/03/06 03:17:21;;;;;;;28.42;9.82;;;-3.40;99.90;;;;;;5043500;28;19921;-60
2022/03/06 03:19:47;;;;;;;27.85;9.80;;;-3.30;99.90;;;;;;5051956;28;20158;-60
2022/03/06 03:22:14;;;;;;;28.15;10.43;;;-3.30;99.90;;;;;;5052178;28;20048;-62
2022/03/06 03:24:41;;;;;;;25.80;9.57;;;-3.20;99.90;;;;;;5046981;28;20077;-62
2022/03/06 03:27:08;;;;;;;24.75;9.75;;;-3.20;99.90;;;;;;5041581;28;20041;-60
2022/03/06 03:29:35;;;;;;;25.70;10.35;;;-3.30;99.90;;;;;;5052077;28;20473;-62
2022/03/06 03:32:02;;;;;;;28.73;10.73;;;-3.30;99.90;;;;;;5053132;28;20666;-60
2022/03/06 03:34:29;;;;;;;;;;;-3.40;99.90;;;;;;5049760;28;20052;-60
2022/03/06 03:36:56;;;;;;;30.88;11.57;;;-3.40;99.90;;;;;;5040954;28;19947;-60
2022/03/06 03:39:22;;;;;;;27.42;9.77;;;-3.40;99.90;;;;;;5052366;28;20045;-60
2022/03/06 03:41:49;;;;;;;26.60;10.70;;;-3.40;99.90;;;;;;5052876;28;20041;-60
2022/03/06 03:44:16;;;;;;;19.35;7.97;;;-3.40;99.90;;;;;;5044299;28;20041;-61
2022/03/06 03:46:43;;;;;;;25.02;10.55;;;-3.40;99.90;;;;;;5044441;28;20091;-60
2022/03/06 03:49:11;;;;;;;25.50;9.82;;;-3.40;99.90;;;;;;5052254;28;20159;-60
2022/03/06 03:51:38;;;;;;;28.83;10.05;;;-3.40;99.90;;;;;;5050157;28;20049;-61
2022/03/06 03:54:05;;;;;;;31.17;10.82;;;-3.50;99.90;;;;;;5041546;28;20044;-60
2022/03/06 03:56:32;;;;;;;27.83;10.77;;;-3.50;99.90;;;;;;5052720;28;20045;-61
2022/03/06 03:58:58;;;;;;;27.17;9.40;;;-3.40;99.90;;;;;;5051677;28;20566;-60
2022/03/06 04:01:25;;;;;;;29.08;10.55;;;-3.40;99.90;;;;;;5042904;28;20039;-61
2022/03/06 04:03:53;;;;;;;29.98;10.80;;;-3.40;99.90;;;;;;5043948;28;20044;-62
2022/03/06 04:06:20;;;;;;;25.27;10.23;;;-3.30;99.90;;;;;;5052522;28;20044;-59
2022/03/06 04:08:47;;;;;;;28.77;10.18;;;-3.30;99.90;;;;;;5045987;28;20044;-62
2022/03/06 04:11:13;;;;;;;34.60;11.38;;;-3.40;99.90;;;;;;5042253;28;20038;-62
2022/03/06 04:13:40;;;;;;;28.00;9.80;;;-3.50;99.90;;;;;;5052303;28;20102;-62
2022/03/06 04:16:07;;;;;;;28.67;10.45;;;-3.50;99.90;;;;;;5052388;28;20040;-62
2022/03/06 04:18:34;;;;;;;30.75;9.88;;;-3.50;99.90;;;;;;5046137;28;20045;-62
2022/03/06 04:21:01;;;;;;;24.85;9.52;;;-3.50;99.90;;;;;;5040630;28;20052;-62
2022/03/06 04:23:28;;;;;;;28.17;10.80;;;-3.60;99.90;;;;;;5052128;28;20045;-62
2022/03/06 04:25:55;;;;;;;25.95;9.75;;;-3.60;99.90;;;;;;5052053;28;20452;-62
2022/03/06 04:28:22;;;;;;;26.80;9.95;;;-3.60;99.90;;;;;;5043042;28;20045;-61
2022/03/06 04:30:48;;;;;;;24.63;10.20;;;-3.70;99.90;;;;;;5043651;28;20041;-62
2022/03/06 04:33:15;;;;;;;25.15;10.25;;;-3.70;99.90;;;;;;5051988;28;20052;-62
2022/03/06 04:35:42;;;;;;;28.48;10.85;;;-3.70;99.90;;;;;;5051972;28;20041;-62
2022/03/06 04:38:09;;;;;;;30.30;10.00;;;-3.70;99.90;;;;;;5046064;28;20033;-62
2022/03/06 04:40:36;;;;;;;28.60;10.45;;;-3.70;99.90;;;;;;5045101;28;20081;-62
2022/03/06 04:43:03;;;;;;;33.40;11.45;;;-3.60;99.90;;;;;;5051889;28;20060;-62
2022/03/06 04:45:30;;;;;;;27.50;9.95;;;-3.60;99.90;;;;;;5046281;28;20411;-62
2022/03/06 04:47:57;;;;;;;26.50;10.30;;;-3.50;99.90;;;;;;5039544;28;20045;-62
2022/03/06 04:50:23;;;;;;;23.85;7.90;;;-3.50;99.90;;;;;;5051162;28;20047;-62
2022/03/06 04:52:52;;;;;;;29.42;10.77;;;-3.50;99.90;;;;;;5051766;28;20123;-59
2022/03/06 04:55:19;;;;;;;29.23;10.98;;;-3.50;99.90;;;;;;5046320;28;20049;-62
2022/03/06 04:57:46;;;;;;;29.55;11.20;;;-3.50;99.90;;;;;;5045910;28;20041;-62
2022/03/06 05:00:15;;;;;;;29.70;11.15;;;-3.40;99.90;;;;;;5051386;28;20099;-62
2022/03/06 05:02:43;;;;;;;27.45;10.48;;;-3.50;99.90;;;;;;5051570;28;20104;-62
2022/03/06 05:05:10;;;;;;;28.60;10.85;;;-3.40;99.90;;;;;;5040490;28;20049;-62
2022/03/06 05:07:38;;;;;;;25.77;10.65;;;-3.50;99.90;;;;;;5044572;28;20044;-62
2022/03/06 05:10:09;;;;;;;29.15;10.60;;;-3.50;99.90;;;;;;5050245;28;20520;-62
2022/03/06 05:12:38;;;;;;;29.90;10.25;;;-3.40;99.90;;;;;;5048389;28;20095;-62
2022/03/06 05:15:07;;;;;;;28.15;9.93;;;-3.40;99.90;;;;;;5043083;28;20037;-62
2022/03/06 05:17:36;;;;;;;30.48;10.90;;;-3.30;99.90;;;;;;5050995;28;20041;-62
2022/03/06 05:20:04;;;;;;;27.67;10.52;;;-3.30;99.90;;;;;;5045045;28;20045;-61
2022/03/06 05:22:31;;;;;;;24.52;10.13;;;-3.30;99.90;;;;;;5043115;28;20513;-61
2022/03/06 05:24:58;;;;;;;33.63;12.25;;;-3.30;99.90;;;;;;5046134;28;20701;-62
2022/03/06 05:27:26;;;;;;;;;;;-3.30;99.90;;;;;;5031264;28;20088;-62
2022/03/06 05:29:53;;;;;;;29.15;10.40;;;-3.40;99.90;;;;;;5037748;28;19928;-61
2022/03/06 05:32:20;;;;;;;26.02;10.38;;;-3.40;99.90;;;;;;5042951;28;20083;-62
2022/03/06 05:34:47;;;;;;;27.15;11.15;;;-3.40;99.90;;;;;;5051224;28;20045;-59
2022/03/06 05:37:14;;;;;;;35.65;11.30;;;-3.40;99.90;;;;;;5050913;28;20044;-62
2022/03/06 05:39:41;;;;;;;26.85;10.52;;;-3.30;99.90;;;;;;5038418;28;20498;-61
2022/03/06 05:42:08;;;;;;;29.83;10.75;;;-3.40;99.90;;;;;;5048821;28;20074;-59
2022/03/06 05:44:35;;;;;;;30.80;10.90;;;-3.30;99.90;;;;;;5051476;28;20049;-61
2022/03/06 05:47:02;;;;;;;32.88;11.02;;;-3.50;99.90;;;;;;5047025;28;20050;-62
2022/03/06 05:49:29;;;;;;;;;;;-3.50;99.90;;;;;;5042731;28;20033;-62
2022/03/06 05:51:56;;;;;;;30.95;10.52;;;-3.50;99.90;;;;;;5050941;28;19927;-62
2022/03/06 05:54:23;;;;;;;24.48;9.30;;;-3.60;99.90;;;;;;5051021;28;20053;-62
2022/03/06 05:56:50;;;;;;;29.42;10.32;;;-3.60;99.90;;;;;;5043999;28;20112;-62
2022/03/06 05:59:17;;;;;;;28.08;10.27;;;-3.60;99.90;;;;;;5042260;28;20044;-60
2022/03/06 06:01:44;;;;;;;22.73;8.13;;;-3.40;99.90;;;;;;5036338;28;20049;-62
2022/03/06 06:04:12;;;;;;;;;;;-3.40;99.90;;;;;;5031443;28;20129;-63
2022/03/06 06:06:39;;;;;;;29.60;10.48;;;-3.30;99.90;;;;;;5038688;28;19921;-62
2022/03/06 06:09:06;;;;;;;26.15;11.05;;;-3.30;99.90;;;;;;5047740;28;20053;-60
2022/03/06 06:11:33;;;;;;;32.10;11.07;;;-3.20;99.90;;;;;;5050797;28;20512;-61
2022/03/06 06:13:59;;;;;;;32.08;12.55;;;-3.20;99.90;;;;;;5042067;28;20048;-60
2022/03/06 06:16:26;;;;;;;32.30;12.15;;;-3.20;99.90;;;;;;5042430;28;20041;-60
2022/03/06 06:18:53;;;;;;;33.03;12.52;;;-3.10;99.90;;;;;;5050346;28;20041;-60
2022/03/06 06:21:20;;;;;;;30.17;11.88;;;-3.10;99.90;;;;;;5050278;28;20413;-61
2022/03/06 06:23:47;;;;;;;25.08;8.90;;;-3.10;99.90;;;;;;5042344;28;20050;-61
2022/03/06 06:26:14;;;;;;;26.65;11.35;;;-3.10;99.90;;;;;;5052741;28;20114;-61
2022/03/06 06:28:41;;;;;;;29.20;11.82;;;-3.00;99.90;;;;;;5053834;28;20104;-62
2022/03/06 06:31:08;;;;;;;29.02;11.43;;;-3.00;99.90;;;;;;5041446;28;20037;-62
2022/03/06 06:33:36;;;;;;;29.45;10.65;;;-3.00;99.90;;;;;;5047542;28;20045;-60
2022/03/06 06:36:03;;;;;;;32.63;11.93;;;-3.00;99.90;;;;;;5054134;28;20112;-62
2022/03/06 06:38:30;;;;;;;27.60;10.95;;;-3.00;99.90;;;;;;5053681;28;20037;-61
2022/03/06 06:40:57;;;;;;;31.80;11.13;;;-2.90;99.90;;;;;;5039615;28;20448;-62
2022/03/06 06:43:24;;;;;;;33.03;12.02;;;-2.90;99.90;;;;;;5045768;28;20497;-62
2022/03/06 06:45:51;;;;;;;23.38;8.93;;;-2.80;99.90;;;;;;5054112;28;20114;-62
2022/03/06 06:48:18;;;;;;;31.42;10.75;;;-2.70;99.90;;;;;;5053453;28;20076;-62
2022/03/06 06:50:45;;;;;;;26.23;10.00;;;-2.70;99.90;;;;;;5043522;28;20045;-62
2022/03/06 06:53:12;;;;;;;26.60;9.93;;;-2.70;99.90;;;;;;5045466;28;20081;-62
2022/03/06 06:55:39;;;;;;;31.38;11.30;;;-2.70;99.90;;;;;;5053865;28;20123;-60
2022/03/06 06:58:06;;;;;;;28.35;10.48;;;-2.60;99.90;;;;;;5053359;28;20053;-61
2022/03/06 07:00:34;;;;;;;27.92;10.30;;;-2.60;99.90;;;;;;5044736;28;20050;-61
2022/03/06 07:03:01;;;;;;;28.05;10.80;;;-2.60;99.90;;;;;;5050134;28;20086;-60
2022/03/06 07:05:29;;;;;;;32.78;11.63;;;-2.50;99.90;;;;;;5053688;28;20485;-60
2022/03/06 07:07:55;;;;;;;37.13;12.35;;;-2.40;99.90;;;;;;5053125;28;20059;-61
2022/03/06 07:10:23;;;;;;;29.85;10.52;;;-2.30;99.90;;;;;;5030511;28;20033;-61
2022/03/06 07:12:53;;;;;;;30.17;10.95;;;-2.30;99.90;;;;;;5024749;28;20037;-61
2022/03/06 07:15:20;;;;;;;34.42;12.27;;;-2.20;99.90;;;;;;5024018;28;20034;-61
2022/03/06 07:17:47;;;;;;;;;;;-2.20;99.90;;;;;;5022992;28;20482;-61
2022/03/06 07:20:14;;;;;;;32.67;12.40;;;-2.10;99.90;;;;;;5024807;28;20468;-60
2022/03/06 07:22:41;;;;;;;32.85;12.68;;;-2.00;99.90;;;;;;5024246;28;20536;-61
2022/03/06 07:25:09;;;;;;;30.80;11.85;;;-1.90;99.90;;;;;;5022372;28;20132;-61
2022/03/06 07:27:36;;;;;;;;;;;-1.80;99.90;;;;;;5027031;28;20046;-61
2022/03/06 07:30:04;;;;;;;32.60;11.97;;;-1.70;99.90;;;;;;5028984;28;20020;-61
2022/03/06 07:32:30;;;;;;;32.38;11.52;;;-1.60;99.90;;;;;;5021804;28;20564;-61
2022/03/06 07:34:57;;;;;;;22.27;8.52;;;-1.60;99.90;;;;;;5022106;28;20041;-62
2022/03/06 07:37:24;;;;;;;35.00;13.82;;;-1.50;99.90;;;;;;5012498;28;20087;-61
2022/03/06 07:39:51;;;;;;;32.47;13.13;;;-1.40;99.90;;;;;;5019423;28;20049;-61
2022/03/06 07:42:17;;;;;;;29.92;11.75;;;-1.20;99.90;;;;;;5013281;28;20494;-61
2022/03/06 07:44:44;;;;;;;27.95;12.80;;;-1.20;99.90;;;;;;5032604;28;20037;-61
2022/03/06 07:47:12;;;;;;;31.45;13.23;;;-1.00;99.90;;;;;;5044455;28;20489;-62
2022/03/06 07:49:38;;;;;;;28.05;12.30;;;-0.90;99.90;;;;;;5052393;28;20056;-61
2022/03/06 07:52:06;;;;;;;35.42;13.25;;;-0.80;99.90;;;;;;5052657;28;20098;-61
2022/03/06 07:54:33;;;;;;;32.58;13.27;;;-0.70;99.90;;;;;;5045500;28;20042;-61
2022/03/06 07:57:00;;;;;;;32.53;13.57;;;-0.60;99.90;;;;;;5049294;28;20094;-61
2022/03/06 07:59:28;;;;;;;38.13;13.85;;;-0.50;99.90;;;;;;5051938;28;20078;-60
2022/03/06 08:01:55;;;;;;;30.60;13.30;;;-0.40;99.90;;;;;;5034858;28;20049;-61
2022/03/06 08:04:22;;;;;;;31.35;13.43;;;-0.20;99.90;;;;;;5039790;28;20413;-61
2022/03/06 08:06:49;;;;;;;29.30;12.60;;;-0.20;99.90;;;;;;5029628;28;20045;-61
2022/03/06 08:09:16;;;;;;;36.17;13.30;;;-0.10;99.90;;;;;;5032099;28;20045;-61
2022/03/06 08:11:43;;;;;;;30.98;13.10;;;0.00;99.90;;;;;;5037099;28;20056;-61
2022/03/06 08:14:10;;;;;;;32.42;13.75;;;0.10;99.90;;;;;;5043832;28;20120;-61
2022/03/06 08:16:38;;;;;;;34.58;14.02;;;0.10;99.90;;;;;;5028831;28;20053;-61
2022/03/06 08:19:05;;;;;;;34.15;13.25;;;0.20;99.90;;;;;;5012083;28;20046;-61
2022/03/06 08:21:32;;;;;;;31.15;12.52;;;0.20;99.90;;;;;;5034224;28;20037;-61
2022/03/06 08:23:59;;;;;;;23.65;9.73;;;0.30;99.90;;;;;;5048559;28;20049;-61
2022/03/06 08:26:26;;;;;;;29.80;12.02;;;0.20;99.90;;;;;;5051996;28;20053;-61
2022/03/06 08:28:53;;;;;;;26.30;11.63;;;0.10;99.90;;;;;;5065341;22;20174;-56
2022/03/06 08:31:20;;;;;;;19.75;9.13;;;0.20;99.90;;;;;;5050240;28;20045;-55
2022/03/06 08:33:47;;;;;;;33.28;12.63;;;0.30;99.90;;;;;;5051445;28;20044;-53
2022/03/06 08:36:15;;;;;;;29.20;11.98;;;0.30;99.90;;;;;;5051944;28;20544;-57
2022/03/06 08:38:41;;;;;;;30.30;12.38;;;0.40;99.90;;;;;;5047894;28;20057;-56
2022/03/06 08:41:08;;;;;;;24.75;10.98;;;0.40;99.90;;;;;;5049372;28;20037;-53
2022/03/06 08:43:35;;;;;;;28.08;11.77;;;0.40;99.90;;;;;;5051988;28;20064;-56
2022/03/06 08:46:03;;;;;;;33.20;12.65;;;0.40;99.90;;;;;;5051559;28;20048;-52
2022/03/06 08:48:30;;;;;;;28.83;12.07;;;0.60;99.90;;;;;;5048319;28;20123;-55
2022/03/06 08:50:57;;;;;;;;;;;0.70;99.90;;;;;;5051871;28;20127;-56
2022/03/06 08:53:25;;;;;;;27.63;11.50;;;0.70;99.90;;;;;;5051426;28;19921;-57
2022/03/06 08:55:51;;;;;;;27.05;12.32;;;0.70;99.90;;;;;;5051640;28;20441;-53
2022/03/06 08:58:18;;;;;;;21.08;9.50;;;0.80;99.90;;;;;;5045200;28;20514;-54
2022/03/06 09:00:45;;;;;;;30.05;12.48;;;0.80;99.90;;;;;;5051363;28;20440;-54
2022/03/06 09:03:12;;;;;;;28.48;12.68;;;0.90;99.90;;;;;;5051479;28;20045;-56
2022/03/06 09:05:40;;;;;;;31.10;13.65;;;1.00;99.90;;;;;;5051393;28;20484;-53
2022/03/06 09:08:12;;;;;;;27.90;11.90;;;1.10;99.90;;;;;;5046436;28;20041;-55
2022/03/06 09:10:40;;;;;;;29.23;12.48;;;1.20;99.90;;;;;;5044849;28;20485;-55
2022/03/06 09:13:08;;;;;;;30.58;13.15;;;1.20;99.90;;;;;;5050737;28;20095;-56
2022/03/06 09:15:36;;;;;;;34.92;12.93;;;1.20;99.90;;;;;;5048699;28;20063;-54
2022/03/06 09:18:04;;;;;;;28.85;12.38;;;1.30;99.90;;;;;;5050204;28;20045;-53
2022/03/06 09:20:31;;;;;;;28.70;12.95;;;1.50;99.90;;;;;;5050832;28;20041;-55
2022/03/06 09:22:58;;;;;;;35.30;13.65;;;1.50;99.90;;;;;;5050803;28;20098;-54
2022/03/06 09:25:25;;;;;;;28.85;12.55;;;1.60;99.90;;;;;;5048692;28;20033;-53
2022/03/06 09:27:52;;;;;;;33.38;12.90;;;1.60;99.90;;;;;;5050117;28;20029;-53
2022/03/06 09:30:18;;;;;;;28.75;12.73;;;1.70;99.90;;;;;;5047622;28;20045;-53
2022/03/06 09:32:45;;;;;;;28.67;13.30;;;1.80;99.90;;;;;;5047929;28;20033;-52
2022/03/06 09:35:12;;;;;;;26.73;12.55;;;1.80;99.90;;;;;;5050676;28;20472;-53
2022/03/06 09:37:43;;;;;;;32.50;13.32;;;1.90;99.90;;;;;;5050776;28;20124;-55
2022/03/06 09:40:10;;;;;;;31.50;12.68;;;1.90;99.90;;;;;;5039519;28;20494;-52
2022/03/06 09:42:37;;;;;;;25.35;12.40;;;2.00;99.90;;;;;;5035595;28;20041;-55
2022/03/06 09:45:08;;;;;;;25.73;12.02;;;2.10;99.90;;;;;;5050452;28;20033;-52
2022/03/06 09:47:36;;;;;;;29.00;13.32;;;2.10;99.90;;;;;;5050080;28;20052;-53
2022/03/06 09:50:05;;;;;;;34.00;13.57;;;2.00;99.90;;;;;;5040138;28;20060;-52
2022/03/06 09:52:33;;;;;;;34.67;14.90;;;2.00;99.90;;;;;;5043294;28;20123;-53
2022/03/06 09:55:00;;;;;;;33.13;14.40;;;2.10;99.90;;;;;;5044640;28;20045;-56
2022/03/06 09:57:28;;;;;;;34.15;14.48;;;2.10;99.90;;;;;;5039570;28;20058;-55
2022/03/06 09:59:55;;;;;;;32.53;14.05;;;2.20;99.90;;;;;;5034688;28;20052;-55
2022/03/06 10:02:21;;;;;;;36.15;14.70;;;2.20;99.90;;;;;;5040188;28;20520;-55
2022/03/06 10:04:50;;;;;;;36.38;14.20;;;2.10;99.90;;;;;;5037688;28;20559;-55
2022/03/06 10:07:19;;;;;;;35.90;15.20;;;2.20;99.90;;;;;;5041594;28;20428;-57
2022/03/06 10:09:54;;;;;;;36.08;15.52;;;2.30;99.90;;;;;;5035433;28;20030;-56
2022/03/06 10:12:27;;;;;;;33.95;14.93;;;2.30;99.90;;;;;;5041550;28;20143;-56
2022/03/06 10:14:58;;;;;;;31.65;14.70;;;2.40;99.90;;;;;;5037361;28;20133;-54
2022/03/06 10:17:30;;;;;;;38.08;16.38;;;2.40;99.90;;;;;;5037727;28;20084;-57
2022/03/06 10:20:10;;;;;;;33.42;14.68;;;2.50;99.90;;;;;;5035709;28;20044;-55
2022/03/06 10:22:43;;;;;;;41.00;16.15;;;2.60;99.90;;;;;;5042925;28;20038;-53
2022/03/06 10:25:16;;;;;;;40.45;16.50;;;2.60;99.90;;;;;;5038871;28;20033;-57
2022/03/06 10:27:54;;;;;;;34.67;16.20;;;2.60;99.90;;;;;;5037576;28;20041;-57
2022/03/06 10:30:26;;;;;;;33.05;13.90;;;2.80;99.90;;;;;;5037842;28;20041;-55
2022/03/06 10:32:54;;;;;;;38.50;16.08;;;3.00;99.90;;;;;;5039264;28;20046;-56
2022/03/06 10:35:33;;;;;;;37.42;15.38;;;3.00;99.90;;;;;;5038813;28;20075;-55
2022/03/06 10:38:01;;;;;;;39.88;16.20;;;3.00;99.90;;;;;;5036432;28;20068;-55
2022/03/06 10:40:31;;;;;;;;;;;3.00;99.90;;;;;;5039111;28;20041;-56
2022/03/06 10:42:58;;;;;;;34.50;15.40;;;3.00;99.90;;;;;;5036236;28;19921;-54
2022/03/06 10:45:25;;;;;;;40.42;16.05;;;2.90;99.90;;;;;;5039832;28;20077;-57
2022/03/06 10:47:52;;;;;;;27.67;12.70;;;2.90;99.90;;;;;;5052957;28;20056;-56
2022/03/06 10:50:25;;;;;;;29.75;12.63;;;3.00;99.90;;;;;;5047096;28;20935;-53
2022/03/06 10:52:57;;;;;;;34.17;15.73;;;3.10;99.90;;;;;;5049766;28;20033;-56
2022/03/06 10:55:34;;;;;;;36.58;16.50;;;3.10;99.90;;;;;;5050209;28;20489;-56
2022/03/06 10:58:03;;;;;;;40.35;16.98;;;3.00;99.90;;;;;;5052742;28;20770;-56
2022/03/06 11:00:32;;;;;;;33.38;15.57;;;3.10;99.90;;;;;;5047740;28;20049;-55
2022/03/06 11:03:04;;;;;;;37.03;15.77;;;3.30;99.90;;;;;;5053376;28;20037;-55
2022/03/06 11:05:32;;;;;;;34.65;15.50;;;3.40;99.90;;;;;;5040800;28;20116;-53
2022/03/06 11:08:02;;;;;;;37.58;15.70;;;3.30;99.90;;;;;;5051374;28;20045;-58
2022/03/06 11:10:29;;;;;;;34.53;16.88;;;3.30;99.90;;;;;;5036796;28;20592;-57
2022/03/06 11:12:56;;;;;;;34.88;15.95;;;3.30;99.90;;;;;;5061324;28;20067;-57
2022/03/06 11:15:24;;;;;;;;;;;3.20;99.90;;;;;;5048015;28;20505;-58
2022/03/06 11:17:51;;;;;;;36.13;15.50;;;3.30;99.90;;;;;;5035129;28;19928;-56
2022/03/06 11:20:19;;;;;;;37.42;16.58;;;3.20;99.90;;;;;;5048928;28;20056;-58
2022/03/06 11:22:54;;;;;;;;;;;3.20;99.90;;;;;;5053428;28;20040;-57
2022/03/06 11:25:26;;;;;;;39.55;16.60;;;3.30;99.90;;;;;;5047745;28;19920;-57
2022/03/06 11:28:10;;;;;;;36.58;16.10;;;3.10;99.90;;;;;;5052259;28;20040;-58
2022/03/06 11:30:37;;;;;;;41.25;16.85;;;3.10;99.90;;;;;;5040622;28;20041;-58
2022/03/06 11:33:09;;;;;;;34.08;16.52;;;3.10;99.90;;;;;;5052769;28;20374;-56
2022/03/06 11:35:42;;;;;;;38.80;15.30;;;3.10;99.90;;;;;;5047756;28;20048;-57
2022/03/06 11:38:14;;;;;;;36.70;15.48;;;3.30;99.90;;;;;;5043700;28;20109;-58
2022/03/06 11:40:48;;;;;;;33.33;15.43;;;3.20;99.90;;;;;;5047466;28;20505;-58
2022/03/06 11:43:33;;;;;;;31.55;15.13;;;3.30;99.90;;;;;;5052654;28;20493;-56
2022/03/06 11:46:12;;;;;;;33.53;14.75;;;3.40;99.90;;;;;;5046400;28;20044;-58
2022/03/06 11:48:39;;;;;;;35.05;15.52;;;3.40;99.90;;;;;;5051764;28;20128;-57
2022/03/06 11:51:21;;;;;;;33.35;14.88;;;3.50;99.90;;;;;;5047361;28;20090;-54
2022/03/06 11:54:01;;;;;;;32.90;15.75;;;3.50;99.90;;;;;;5044264;28;20053;-58
2022/03/06 11:56:31;;;;;;;31.10;14.73;;;3.60;99.90;;;;;;5035709;28;20045;-58
2022/03/06 11:59:22;;;;;;;30.67;13.75;;;3.80;99.90;;;;;;5035222;28;20502;-57
2022/03/06 12:01:53;;;;;;;32.72;15.93;;;4.00;99.90;;;;;;5032725;28;20048;-58
2022/03/06 12:04:26;;;;;;;30.85;14.88;;;4.10;99.90;;;;;;5045064;28;20059;-58
2022/03/06 12:06:57;;;;;;;29.63;12.80;;;4.20;99.90;;;;;;5049116;28;20394;-56
2022/03/06 12:09:26;;;;;;;33.00;14.77;;;4.20;99.90;;;;;;5049770;28;20041;-58
2022/03/06 12:11:55;;;;;;;31.05;14.60;;;4.20;99.90;;;;;;5046647;28;20045;-58
2022/03/06 12:14:35;;;;;;;31.38;14.95;;;4.30;99.90;;;;;;5049800;28;20041;-58
2022/03/06 12:17:02;;;;;;;30.10;14.13;;;4.30;99.90;;;;;;5046901;28;20071;-58
2022/03/06 12:19:31;;;;;;;30.92;14.07;;;4.10;99.90;;;;;;5037991;28;20111;-57
2022/03/06 12:22:12;;;;;;;31.30;13.68;;;4.10;99.90;;;;;;5044495;28;20040;-58
2022/03/06 12:24:44;;;;;;;34.00;14.82;;;4.10;99.90;;;;;;5045914;28;20090;-58
2022/03/06 12:27:19;;;;;;;30.65;13.45;;;4.10;99.90;;;;;;5050781;28;20045;-58
2022/03/06 12:29:45;;;;;;;28.65;13.18;;;4.10;99.90;;;;;;5045795;28;20134;-58
2022/03/06 12:32:24;;;;;;;31.05;13.45;;;4.00;99.90;;;;;;5051684;28;20485;-57
2022/03/06 12:35:02;;;;;;;28.20;12.65;;;3.90;99.90;;;;;;5040377;28;20099;-59
2022/03/06 12:37:35;;;;;;;29.55;13.05;;;3.80;99.90;;;;;;5040024;28;20068;-58
2022/03/06 12:40:06;;;;;;;28.85;13.18;;;3.90;99.90;;;;;;5043236;28;20453;-57
2022/03/06 12:42:35;;;;;;;26.33;12.77;;;3.90;99.90;;;;;;5043264;28;20084;-59
2022/03/06 12:45:08;;;;;;;25.40;12.02;;;3.80;99.90;;;;;;5041396;28;20112;-58